Italic G — IBYH — position and weather

sailwx.info

Track history (hours):
 
Tides and Currents Weather Stations Pressure Air Temp Water Temp Dewpoint Dewpoint Depression Visibility Wind Speed Wind Dir Waves Ship Positions

Italic G

Last reported at 2017-Jan-11 01:33 UTC. Time now 2017-Jan-20 07:47 UTC.
Position N 40°26' W 073°46'.
Warning: this ship's position is 9 days out of date.

Length 229 m; draft 14.3 m.

Type: Cargo ship. MMSI: 247282300.

Date/timePositionNaut miles runAvg speedWind from/ knotsBaromVisibWave heightAir tempDewpointWater temp
2017-Jan-11 01:33N 40°26' W 073°46'10 9.7
2017-Jan-11 00:33N 40°30' W 073°58'8 7.8
2017-Jan-10 23:33N 40°37' W 074°03'0 0.2
2017-Jan-10 22:32N 40°37' W 074°03'0 0.1
2017-Jan-10 21:32N 40°37' W 074°03'0 0.0
2017-Jan-10 20:32N 40°37' W 074°03'0 0.3
2017-Jan-10 19:32N 40°37' W 074°03'0 0.1
2017-Jan-10 18:29N 40°37' W 074°03'0 0.0
2017-Jan-10 17:32N 40°37' W 074°03'0 0.0
2017-Jan-10 16:32N 40°37' W 074°03'0 0.0
2017-Jan-10 15:32N 40°37' W 074°03'0 0.0
2017-Jan-10 14:32N 40°37' W 074°03'0 0.1
2017-Jan-10 13:34N 40°37' W 074°03'4 4.0
2017-Jan-10 12:33N 40°33' W 074°01'6 6.2
2017-Jan-10 11:32N 40°29' W 073°55'15 2.4
2017-Jan-10 05:28N 40°29' W 073°35'8 7.1
2017-Jan-10 04:17N 40°24' W 073°44'234 8.9
2017-Jan-09 02:03N 36°52' W 075°51'5 9.6
2017-Jan-09 01:33N 36°55' W 075°56'9 8.4
2017-Jan-09 00:32N 37°01' W 076°03'109 5.5
2017-Jan-08 04:33N 38°49' W 076°25'5 0.4
2017-Jan-07 17:22N 38°54' W 076°24'0 0.0
2017-Jan-07 16:31N 38°54' W 076°24'0 0.0
2017-Jan-07 14:15N 38°54' W 076°24'0 0.2
2017-Jan-07 13:33N 38°54' W 076°24'4 3.8
2017-Jan-07 12:33N 38°58' W 076°23'9 8.6
2017-Jan-07 11:33N 39°06' W 076°24'8 7.5
2017-Jan-07 10:33N 39°12' W 076°30'4 0.2
2017-Jan-06 13:28N 39°13' W 076°35'0 0.0
2017-Jan-06 12:28N 39°13' W 076°35'0 0.0
2017-Jan-06 11:31N 39°13' W 076°35'0 0.0
2017-Jan-06 10:31N 39°13' W 076°35'0 0.0
2017-Jan-06 09:31N 39°13' W 076°35'0 0.0
2017-Jan-06 07:22N 39°13' W 076°35'0 0.0
2017-Jan-06 06:31N 39°13' W 076°35'0 0.0
2017-Jan-06 05:31N 39°13' W 076°35'0 0.0
2017-Jan-06 04:31N 39°13' W 076°35'0 0.0
2017-Jan-06 03:28N 39°13' W 076°35'0 0.0
2017-Jan-06 02:22N 39°13' W 076°35'0 0.0
2017-Jan-06 01:28N 39°13' W 076°35'0 0.0
2017-Jan-06 00:31N 39°13' W 076°35'0 0.0
2017-Jan-05 23:31N 39°13' W 076°35'0 0.0
2017-Jan-05 22:25N 39°13' W 076°35'0 0.0
2017-Jan-05 21:31N 39°13' W 076°35'0 0.0
2017-Jan-05 20:31N 39°13' W 076°35'0 0.0
2017-Jan-05 19:13N 39°13' W 076°35'0 0.0
2017-Jan-05 17:28N 39°13' W 076°35'0 0.0
2017-Jan-05 16:28N 39°13' W 076°35'0 0.0
2017-Jan-05 15:28N 39°13' W 076°35'0 0.0
2017-Jan-05 05:16N 39°13' W 076°35'0 0.0
2017-Jan-05 04:31N 39°13' W 076°35'0 0.0
2017-Jan-05 03:31N 39°13' W 076°35'0 0.0
2017-Jan-05 02:31N 39°13' W 076°35'0 0.0
2017-Jan-05 01:31N 39°13' W 076°35'0 0.0
2017-Jan-05 00:31N 39°13' W 076°35'0 0.0
2017-Jan-04 23:25N 39°13' W 076°35'0 0.0
2017-Jan-04 22:31N 39°13' W 076°35'0 0.0
2017-Jan-04 21:31N 39°13' W 076°35'0 0.0
2017-Jan-04 20:25N 39°13' W 076°35'0 0.0
2017-Jan-04 19:31N 39°13' W 076°35'0 0.0
2017-Jan-04 18:22N 39°13' W 076°35'0 0.0
2017-Jan-04 17:31N 39°13' W 076°35'0 0.0
2017-Jan-04 16:28N 39°13' W 076°35'0 0.0
2017-Jan-04 15:31N 39°13' W 076°35'0 0.0
2017-Jan-04 14:31N 39°13' W 076°35'0 0.0
2017-Jan-04 13:31N 39°13' W 076°35'0 0.0
2017-Jan-04 12:31N 39°13' W 076°35'0 0.0
2017-Jan-04 05:19N 39°13' W 076°35'0 0.0
2017-Jan-04 04:25N 39°13' W 076°35'0 0.0
2017-Jan-04 03:31N 39°13' W 076°35'0 0.0
2017-Jan-04 02:31N 39°13' W 076°35'0 0.0
2017-Jan-03 21:10N 39°13' W 076°35'0 0.0
2017-Jan-03 20:25N 39°13' W 076°35'0 0.0
2017-Jan-02 06:31N 39°13' W 076°35'0 0.0
2017-Jan-02 05:31N 39°13' W 076°35'0 0.0
2017-Jan-02 04:31N 39°13' W 076°35'0 0.0
2017-Jan-02 03:31N 39°13' W 076°35'3 2.6
2017-Jan-02 02:34N 39°13' W 076°31'5 5.4
2017-Jan-02 01:34N 39°10' W 076°26'9 8.8
2017-Jan-02 00:34N 39°01' W 076°23'4 4.2
2017-Jan-01 23:32N 38°57' W 076°24'0 0.1
2017-Jan-01 22:32N 38°57' W 076°24'0 0.1
2017-Jan-01 21:29N 38°57' W 076°24'0 0.0
2017-Jan-01 20:32N 38°57' W 076°24'0 0.0
2017-Jan-01 19:32N 38°57' W 076°24'0 0.0
2017-Jan-01 18:32N 38°57' W 076°24'0 0.1
2017-Jan-01 17:32N 38°57' W 076°24'0 0.0
2017-Jan-01 16:32N 38°57' W 076°24'0 0.1
2017-Jan-01 15:32N 38°57' W 076°24'0 0.1
2017-Jan-01 14:32N 38°57' W 076°24'0 0.0
2017-Jan-01 13:32N 38°57' W 076°24'0 0.1
2017-Jan-01 12:32N 38°57' W 076°24'0 0.0
2017-Jan-01 11:32N 38°57' W 076°24'0 0.1
2017-Jan-01 10:32N 38°57' W 076°24'0 0.1
2017-Jan-01 09:32N 38°57' W 076°24'0 0.2
2017-Jan-01 08:32N 38°57' W 076°24'0 0.0
2017-Jan-01 07:32N 38°57' W 076°24'0 0.0
2017-Jan-01 06:32N 38°57' W 076°24'0 0.1
2017-Jan-01 05:32N 38°57' W 076°24'0 0.1
2017-Jan-01 04:26N 38°57' W 076°24'0 0.0
2017-Jan-01 03:32N 38°57' W 076°24'0 0.0
2017-Jan-01 02:32N 38°57' W 076°24'  
Track history (hours):
 
Tides and Currents Weather Stations Pressure Air Temp Water Temp Dewpoint Dewpoint Depression Visibility Wind Speed Wind Dir Waves Ship Positions

Italic G

Last reported at 2017-Jan-11 01:33 UTC. Time now 2017-Jan-20 07:47 UTC.
Position N 40°26' W 073°46'.
Warning: this ship's position is 9 days out of date.

Length 229 m; draft 14.3 m.

Type: Cargo ship. MMSI: 247282300.

Date/timePositionNaut miles runAvg speedWind from/ knotsBaromVisibWave heightAir tempDewpointWater temp
2017-Jan-11 01:33N 40°26' W 073°46'10 9.7
2017-Jan-11 00:33N 40°30' W 073°58'8 7.8
2017-Jan-10 23:33N 40°37' W 074°03'0 0.2
2017-Jan-10 22:32N 40°37' W 074°03'0 0.1
2017-Jan-10 21:32N 40°37' W 074°03'0 0.0
2017-Jan-10 20:32N 40°37' W 074°03'0 0.3
2017-Jan-10 19:32N 40°37' W 074°03'0 0.1
2017-Jan-10 18:29N 40°37' W 074°03'0 0.0
2017-Jan-10 17:32N 40°37' W 074°03'0 0.0
2017-Jan-10 16:32N 40°37' W 074°03'0 0.0
2017-Jan-10 15:32N 40°37' W 074°03'0 0.0
2017-Jan-10 14:32N 40°37' W 074°03'0 0.1
2017-Jan-10 13:34N 40°37' W 074°03'4 4.0
2017-Jan-10 12:33N 40°33' W 074°01'6 6.2
2017-Jan-10 11:32N 40°29' W 073°55'15 2.4
2017-Jan-10 05:28N 40°29' W 073°35'8 7.1
2017-Jan-10 04:17N 40°24' W 073°44'234 8.9
2017-Jan-09 02:03N 36°52' W 075°51'5 9.6
2017-Jan-09 01:33N 36°55' W 075°56'9 8.4
2017-Jan-09 00:32N 37°01' W 076°03'109 5.5
2017-Jan-08 04:33N 38°49' W 076°25'5 0.4
2017-Jan-07 17:22N 38°54' W 076°24'0 0.0
2017-Jan-07 16:31N 38°54' W 076°24'0 0.0
2017-Jan-07 14:15N 38°54' W 076°24'0 0.2
2017-Jan-07 13:33N 38°54' W 076°24'4 3.8
2017-Jan-07 12:33N 38°58' W 076°23'9 8.6
2017-Jan-07 11:33N 39°06' W 076°24'8 7.5
2017-Jan-07 10:33N 39°12' W 076°30'4 0.2
2017-Jan-06 13:28N 39°13' W 076°35'0 0.0
2017-Jan-06 12:28N 39°13' W 076°35'0 0.0
2017-Jan-06 11:31N 39°13' W 076°35'0 0.0
2017-Jan-06 10:31N 39°13' W 076°35'0 0.0
2017-Jan-06 09:31N 39°13' W 076°35'0 0.0
2017-Jan-06 07:22N 39°13' W 076°35'0 0.0
2017-Jan-06 06:31N 39°13' W 076°35'0 0.0
2017-Jan-06 05:31N 39°13' W 076°35'0 0.0
2017-Jan-06 04:31N 39°13' W 076°35'0 0.0
2017-Jan-06 03:28N 39°13' W 076°35'0 0.0
2017-Jan-06 02:22N 39°13' W 076°35'0 0.0
2017-Jan-06 01:28N 39°13' W 076°35'0 0.0
2017-Jan-06 00:31N 39°13' W 076°35'0 0.0
2017-Jan-05 23:31N 39°13' W 076°35'0 0.0
2017-Jan-05 22:25N 39°13' W 076°35'0 0.0
2017-Jan-05 21:31N 39°13' W 076°35'0 0.0
2017-Jan-05 20:31N 39°13' W 076°35'0 0.0
2017-Jan-05 19:13N 39°13' W 076°35'0 0.0
2017-Jan-05 17:28N 39°13' W 076°35'0 0.0
2017-Jan-05 16:28N 39°13' W 076°35'0 0.0
2017-Jan-05 15:28N 39°13' W 076°35'0 0.0
2017-Jan-05 05:16N 39°13' W 076°35'0 0.0
2017-Jan-05 04:31N 39°13' W 076°35'0 0.0
2017-Jan-05 03:31N 39°13' W 076°35'0 0.0
2017-Jan-05 02:31N 39°13' W 076°35'0 0.0
2017-Jan-05 01:31N 39°13' W 076°35'0 0.0
2017-Jan-05 00:31N 39°13' W 076°35'0 0.0
2017-Jan-04 23:25N 39°13' W 076°35'0 0.0
2017-Jan-04 22:31N 39°13' W 076°35'0 0.0
2017-Jan-04 21:31N 39°13' W 076°35'0 0.0
2017-Jan-04 20:25N 39°13' W 076°35'0 0.0
2017-Jan-04 19:31N 39°13' W 076°35'0 0.0
2017-Jan-04 18:22N 39°13' W 076°35'0 0.0
2017-Jan-04 17:31N 39°13' W 076°35'0 0.0
2017-Jan-04 16:28N 39°13' W 076°35'0 0.0
2017-Jan-04 15:31N 39°13' W 076°35'0 0.0
2017-Jan-04 14:31N 39°13' W 076°35'0 0.0
2017-Jan-04 13:31N 39°13' W 076°35'0 0.0
2017-Jan-04 12:31N 39°13' W 076°35'0 0.0
2017-Jan-04 05:19N 39°13' W 076°35'0 0.0
2017-Jan-04 04:25N 39°13' W 076°35'0 0.0
2017-Jan-04 03:31N 39°13' W 076°35'0 0.0
2017-Jan-04 02:31N 39°13' W 076°35'0 0.0
2017-Jan-03 21:10N 39°13' W 076°35'0 0.0
2017-Jan-03 20:25N 39°13' W 076°35'0 0.0
2017-Jan-02 06:31N 39°13' W 076°35'0 0.0
2017-Jan-02 05:31N 39°13' W 076°35'0 0.0
2017-Jan-02 04:31N 39°13' W 076°35'0 0.0
2017-Jan-02 03:31N 39°13' W 076°35'3 2.6
2017-Jan-02 02:34N 39°13' W 076°31'5 5.4
2017-Jan-02 01:34N 39°10' W 076°26'9 8.8
2017-Jan-02 00:34N 39°01' W 076°23'4 4.2
2017-Jan-01 23:32N 38°57' W 076°24'0 0.1
2017-Jan-01 22:32N 38°57' W 076°24'0 0.1
2017-Jan-01 21:29N 38°57' W 076°24'0 0.0
2017-Jan-01 20:32N 38°57' W 076°24'0 0.0
2017-Jan-01 19:32N 38°57' W 076°24'0 0.0
2017-Jan-01 18:32N 38°57' W 076°24'0 0.1
2017-Jan-01 17:32N 38°57' W 076°24'0 0.0
2017-Jan-01 16:32N 38°57' W 076°24'0 0.1
2017-Jan-01 15:32N 38°57' W 076°24'0 0.1
2017-Jan-01 14:32N 38°57' W 076°24'0 0.0
2017-Jan-01 13:32N 38°57' W 076°24'0 0.1
2017-Jan-01 12:32N 38°57' W 076°24'0 0.0
2017-Jan-01 11:32N 38°57' W 076°24'0 0.1
2017-Jan-01 10:32N 38°57' W 076°24'0 0.1
2017-Jan-01 09:32N 38°57' W 076°24'0 0.2
2017-Jan-01 08:32N 38°57' W 076°24'0 0.0
2017-Jan-01 07:32N 38°57' W 076°24'0 0.0
2017-Jan-01 06:32N 38°57' W 076°24'0 0.1
2017-Jan-01 05:32N 38°57' W 076°24'0 0.1
2017-Jan-01 04:26N 38°57' W 076°24'0 0.0
2017-Jan-01 03:32N 38°57' W 076°24'0 0.0
2017-Jan-01 02:32N 38°57' W 076°24'  

Dump ship's entire track history